createdAt,value
2019-03-04T00:01:46.307Z,98461.24
2019-03-04T00:04:17.567Z,98447.09
2019-03-04T00:06:48.857Z,98434.45
2019-03-04T00:09:20.145Z,98431.95
2019-03-04T00:11:51.442Z,98417.52
2019-03-04T00:14:22.741Z,98424.40
2019-03-04T00:16:54.048Z,98416.44
2019-03-04T00:19:25.359Z,98412.52
2019-03-04T00:21:56.660Z,98404.08
2019-03-04T00:24:27.941Z,98391.63
2019-03-04T00:26:59.233Z,98387.47
2019-03-04T00:29:30.526Z,98393.84
2019-03-04T00:32:01.819Z,98378.98
2019-03-04T00:34:33.106Z,98374.41
2019-03-04T00:37:04.472Z,98356.28
2019-03-04T00:39:35.741Z,98349.45
2019-03-04T00:42:07.038Z,98334.92
2019-03-04T00:44:38.332Z,98304.77
2019-03-04T00:47:09.667Z,98306.48
2019-03-04T00:49:40.919Z,98303.01
2019-03-04T00:52:12.192Z,98294.52
2019-03-04T00:54:43.484Z,98275.89
2019-03-04T00:57:14.739Z,98234.30
2019-03-04T00:59:46.040Z,98239.04
2019-03-04T01:02:17.339Z,98245.32
2019-03-04T01:04:48.616Z,98250.28
2019-03-04T01:07:19.910Z,98264.52
2019-03-04T01:09:51.287Z,98274.04
2019-03-04T01:12:22.544Z,98246.50
2019-03-04T01:14:53.806Z,98247.59
2019-03-04T01:17:25.139Z,98259.61
2019-03-04T01:19:56.483Z,98276.41
2019-03-04T01:22:27.775Z,98273.14
2019-03-04T01:24:59.081Z,98258.63
2019-03-04T01:27:30.417Z,98254.42
2019-03-04T01:30:05.767Z,98257.09
2019-03-04T01:32:37.090Z,98252.90
2019-03-04T01:35:08.571Z,98247.84
2019-03-04T01:37:39.827Z,98237.34
2019-03-04T01:40:14.915Z,98233.86
2019-03-04T01:42:49.441Z,98234.03
2019-03-04T01:45:20.758Z,98217.93
2019-03-04T01:47:52.068Z,98203.16
2019-03-04T01:50:23.346Z,98201.46
2019-03-04T01:52:54.672Z,98194.94
2019-03-04T01:55:25.955Z,98204.72
2019-03-04T01:57:57.244Z,98154.28
2019-03-04T02:00:28.750Z,98145.14
2019-03-04T02:03:00.055Z,98108.75
2019-03-04T02:05:31.348Z,98127.46
2019-03-04T02:08:02.619Z,98141.47
2019-03-04T02:10:33.924Z,98119.09
2019-03-04T02:13:05.294Z,98119.31
2019-03-04T02:15:36.583Z,98123.36
2019-03-04T02:18:08.007Z,98136.27
2019-03-04T02:20:39.340Z,98140.99
2019-03-04T02:23:10.605Z,98132.96
2019-03-04T02:26:20.569Z,98112.97
2019-03-04T02:28:51.896Z,98069.71
2019-03-04T02:31:23.225Z,98029.21
2019-03-04T02:33:54.571Z,98024.19
2019-03-04T02:36:25.851Z,98038.16
2019-03-04T02:38:57.137Z,98045.09
2019-03-04T02:41:28.481Z,98063.03
2019-03-04T02:43:59.762Z,98060.03
2019-03-04T02:46:31.069Z,98041.84
2019-03-04T02:49:02.359Z,98030.86
2019-03-04T02:51:33.618Z,97988.46
2019-03-04T02:54:05.038Z,98001.16
2019-03-04T02:56:36.363Z,97992.47
2019-03-04T02:59:07.608Z,98007.83
2019-03-04T03:01:38.918Z,98001.81
2019-03-04T03:04:10.195Z,97989.09
2019-03-04T03:06:41.475Z,97976.29
2019-03-04T03:09:14.004Z,97968.80
2019-03-04T03:11:45.297Z,97946.14
2019-03-04T03:14:16.629Z,97961.62
2019-03-04T03:16:47.953Z,97936.27
2019-03-04T03:19:19.258Z,97960.80
2019-03-04T03:21:50.533Z,97937.17
2019-03-04T03:24:21.844Z,97932.59
2019-03-04T03:26:53.151Z,97892.69
2019-03-04T03:29:24.459Z,97894.70
2019-03-04T03:31:55.725Z,97906.02
2019-03-04T03:34:27.002Z,97873.22
2019-03-04T03:36:58.283Z,97837.77
2019-03-04T03:39:29.552Z,97800.53
2019-03-04T03:42:00.816Z,97787.53
2019-03-04T03:44:32.083Z,97781.83
2019-03-04T03:47:06.713Z,97759.58
2019-03-04T03:49:38.011Z,97821.02
2019-03-04T03:52:09.273Z,97803.75
2019-03-04T03:54:40.621Z,97825.30
2019-03-04T03:57:11.857Z,97795.44
2019-03-04T03:59:43.292Z,97758.48
2019-03-04T04:02:14.628Z,97720.89
2019-03-04T04:04:45.866Z,97779.53
2019-03-04T04:07:17.147Z,97780.24
2019-03-04T04:09:48.422Z,97780.72
2019-03-04T04:12:19.642Z,97795.79
2019-03-04T04:14:50.949Z,97779.77
2019-03-04T04:17:22.199Z,97769.19
2019-03-04T04:19:53.460Z,97825.88
2019-03-04T04:22:24.722Z,97798.92
2019-03-04T04:24:55.978Z,97740.58
2019-03-04T04:27:27.218Z,97767.59
2019-03-04T04:29:58.457Z,97674.87
2019-03-04T04:32:29.707Z,97665.75
2019-03-04T04:35:00.914Z,97672.86
2019-03-04T04:37:32.057Z,97691.36
2019-03-04T04:40:03.275Z,97704.89
2019-03-04T04:42:34.510Z,97740.62
2019-03-04T04:45:05.954Z,97683.77
2019-03-04T04:47:37.238Z,97713.77
2019-03-04T04:50:10.854Z,97717.29
2019-03-04T04:52:42.161Z,97695.70
2019-03-04T04:55:13.504Z,97708.88
2019-03-04T04:57:44.766Z,97689.81
2019-03-04T05:00:16.206Z,97667.19
2019-03-04T05:02:47.463Z,97702.59
2019-03-04T05:05:18.751Z,97703.80
2019-03-04T05:07:50.038Z,97696.83
2019-03-04T05:10:21.371Z,97676.67
2019-03-04T05:12:52.750Z,97670.03
2019-03-04T05:15:24.056Z,97644.14
2019-03-04T05:17:55.443Z,97649.00
2019-03-04T05:20:26.772Z,97660.17
2019-03-04T05:22:58.180Z,97656.52
2019-03-04T05:25:29.451Z,97634.83
2019-03-04T05:28:00.719Z,97646.27
2019-03-04T05:30:32.006Z,97650.77
2019-03-04T05:33:03.300Z,97645.72
2019-03-04T05:35:34.584Z,97623.45
2019-03-04T05:38:05.815Z,97624.83
2019-03-04T05:40:37.164Z,97603.13
2019-03-04T05:43:08.473Z,97586.91
2019-03-04T05:45:39.733Z,97589.72
2019-03-04T05:48:11.031Z,97612.17
2019-03-04T05:50:42.324Z,97605.53
2019-03-04T05:53:13.583Z,97583.36
2019-03-04T05:55:44.873Z,97555.13
2019-03-04T05:58:16.203Z,97542.92
2019-03-04T06:00:47.521Z,97545.52
2019-03-04T06:03:18.956Z,97555.22
2019-03-04T06:05:50.197Z,97554.94
2019-03-04T06:08:21.489Z,97545.30
2019-03-04T06:10:52.801Z,97549.09
2019-03-04T06:13:24.074Z,97503.66
2019-03-04T06:15:55.383Z,97497.69
2019-03-04T06:18:26.745Z,97482.50
2019-03-04T06:20:58.026Z,97503.03
2019-03-04T06:23:29.290Z,97515.55
2019-03-04T06:26:00.588Z,97674.96
2019-03-04T06:28:31.871Z,97734.63
2019-03-04T06:31:03.137Z,97750.00
2019-03-04T06:33:34.398Z,97744.78
2019-03-04T06:36:05.610Z,97765.76
2019-03-04T06:38:36.836Z,97761.48
2019-03-04T06:41:08.105Z,97740.09
2019-03-04T06:43:39.383Z,97748.33
2019-03-04T06:46:10.624Z,97746.52
2019-03-04T06:48:41.939Z,97764.48
2019-03-04T06:51:20.018Z,97687.94
2019-03-04T06:54:17.516Z,97730.33
2019-03-04T06:57:10.299Z,97717.56
2019-03-04T07:00:48.594Z,97685.58
2019-03-04T07:04:02.164Z,97668.72
2019-03-04T07:06:33.489Z,97622.16
2019-03-04T07:09:30.042Z,97663.86
2019-03-04T07:12:01.345Z,97668.32
2019-03-04T07:14:32.650Z,97646.77
2019-03-04T07:17:04.024Z,97632.61
2019-03-04T07:19:38.216Z,97647.87
2019-03-04T07:22:11.136Z,97638.71
2019-03-04T07:24:42.476Z,97662.80
2019-03-04T07:27:13.752Z,97653.84
2019-03-04T07:29:45.202Z,97676.17
2019-03-04T07:32:16.480Z,97678.34
2019-03-04T07:34:47.777Z,97692.41
2019-03-04T07:37:19.023Z,97693.12
2019-03-04T07:39:50.289Z,97652.08
2019-03-04T07:42:21.539Z,97713.05
2019-03-04T07:44:52.815Z,97704.56
2019-03-04T07:47:24.062Z,97716.61
2019-03-04T07:49:55.326Z,97682.58
2019-03-04T07:52:26.599Z,97670.60
2019-03-04T07:54:57.841Z,97685.16
2019-03-04T07:57:31.696Z,97676.16
2019-03-04T08:00:02.972Z,97709.91
2019-03-04T08:02:34.245Z,97695.86
2019-03-04T08:05:06.206Z,97696.06
2019-03-04T08:07:46.800Z,97708.83
2019-03-04T08:11:30.806Z,97699.06
2019-03-04T08:14:03.231Z,97681.84
2019-03-04T08:16:36.227Z,97700.00
2019-03-04T08:19:07.712Z,97709.44
2019-03-04T08:21:39.013Z,97688.61
2019-03-04T08:24:10.339Z,97684.76
2019-03-04T08:26:41.626Z,97696.11
2019-03-04T08:29:13.543Z,97695.59
2019-03-04T08:31:44.813Z,97707.33
2019-03-04T08:34:16.078Z,97709.81
2019-03-04T08:36:47.368Z,97706.34
2019-03-04T08:39:18.705Z,97715.77
2019-03-04T08:41:49.972Z,97730.48
2019-03-04T08:44:21.536Z,97719.58
2019-03-04T08:46:52.816Z,97731.38
2019-03-04T08:49:24.097Z,97719.16
2019-03-04T08:51:55.381Z,97715.05
2019-03-04T08:54:26.687Z,97714.55
2019-03-04T08:57:03.890Z,97707.20
2019-03-04T08:59:30.951Z,97719.84
2019-03-04T09:02:02.270Z,97715.75
2019-03-04T09:04:33.595Z,97710.53
2019-03-04T09:07:04.867Z,97710.55
2019-03-04T09:09:36.112Z,97713.81
2019-03-04T09:12:07.413Z,97736.40
2019-03-04T09:14:38.682Z,97737.32
2019-03-04T09:17:10.736Z,97699.14
2019-03-04T09:19:42.042Z,97727.52
2019-03-04T09:22:13.286Z,97697.77
2019-03-04T09:24:44.566Z,97721.16
2019-03-04T09:27:15.895Z,97690.49
2019-03-04T09:29:47.198Z,97722.70
2019-03-04T09:32:18.513Z,97701.09
2019-03-04T09:34:49.776Z,97729.80
2019-03-04T09:37:21.104Z,97669.79
2019-03-04T09:39:52.442Z,97754.83
2019-03-04T09:42:25.825Z,97680.95
2019-03-04T09:44:57.206Z,97692.03
2019-03-04T09:47:28.483Z,97712.76
2019-03-04T09:49:59.810Z,97709.48
2019-03-04T09:52:31.133Z,97712.64
2019-03-04T09:55:02.478Z,97700.05
2019-03-04T09:57:33.754Z,97694.94
2019-03-04T10:00:05.520Z,97723.19
2019-03-04T10:02:44.899Z,97733.75
2019-03-04T10:05:51.937Z,97726.73
2019-03-04T10:09:06.493Z,97708.81
2019-03-04T10:12:03.683Z,97738.78
2019-03-04T10:15:35.204Z,97731.50
2019-03-04T10:18:50.568Z,97736.52
2019-03-04T10:22:15.002Z,97745.24
2019-03-04T10:25:19.239Z,97706.80
2019-03-04T10:28:57.170Z,97723.27
2019-03-04T10:32:20.385Z,97722.42
2019-03-04T10:35:41.274Z,97726.47
2019-03-04T10:39:13.815Z,97711.31
2019-03-04T10:42:28.115Z,97712.27
2019-03-04T10:45:44.964Z,97714.30
2019-03-04T10:48:16.274Z,97699.47
2019-03-04T10:50:47.679Z,97700.68
2019-03-04T10:53:18.969Z,97698.02
2019-03-04T10:55:50.244Z,97708.16
2019-03-04T10:58:21.520Z,97694.69
2019-03-04T11:00:52.779Z,97700.27
2019-03-04T11:03:24.094Z,97698.86
2019-03-04T11:05:55.954Z,97687.34
2019-03-04T11:08:27.301Z,97672.64
2019-03-04T11:10:58.608Z,97672.73
2019-03-04T11:13:31.954Z,97666.73
2019-03-04T11:16:03.229Z,97654.20
2019-03-04T11:18:34.541Z,97704.94
2019-03-04T11:21:06.394Z,97671.52
2019-03-04T11:23:37.698Z,97669.41
2019-03-04T11:26:09.096Z,97701.83
2019-03-04T11:28:40.379Z,97823.05
2019-03-04T11:31:11.630Z,97811.57
2019-03-04T11:33:42.962Z,97832.69
2019-03-04T11:36:14.331Z,97829.60
2019-03-04T11:38:48.941Z,97826.00
2019-03-04T11:41:22.623Z,97821.63
2019-03-04T11:43:53.916Z,97829.95
2019-03-04T11:46:25.393Z,97828.05
2019-03-04T11:48:56.677Z,97839.99
2019-03-04T11:51:27.948Z,97846.80
2019-03-04T11:53:59.203Z,97847.64
2019-03-04T11:56:30.496Z,97859.23
2019-03-04T11:59:01.737Z,97849.40
2019-03-04T12:01:42.861Z,97869.19
2019-03-04T12:04:14.118Z,97876.78
2019-03-04T12:06:45.370Z,97877.62
2019-03-04T12:09:17.163Z,97875.61
2019-03-04T12:11:48.426Z,97870.50
2019-03-04T12:14:19.697Z,97878.45
2019-03-04T12:16:51.012Z,97880.72
2019-03-04T12:19:22.259Z,97884.98
2019-03-04T12:21:53.603Z,97893.61
2019-03-04T12:24:24.888Z,97907.52
2019-03-04T12:26:56.130Z,97912.98
2019-03-04T12:29:27.462Z,97923.00
2019-03-04T12:32:14.300Z,97940.64
2019-03-04T12:34:45.537Z,97951.78
2019-03-04T12:37:16.824Z,97960.34
2019-03-04T12:39:48.208Z,97960.34
2019-03-04T12:42:19.418Z,97969.00
2019-03-04T12:44:50.650Z,97967.65
2019-03-04T12:47:21.907Z,97981.92
2019-03-04T12:49:53.142Z,97973.52
2019-03-04T12:52:24.384Z,97984.98
2019-03-04T12:54:55.638Z,97987.34
2019-03-04T12:57:26.900Z,97993.89
2019-03-04T12:59:58.205Z,97996.51
2019-03-04T13:02:29.469Z,98000.09
2019-03-04T13:05:01.611Z,98002.45
2019-03-04T13:07:36.168Z,97996.08
2019-03-04T13:10:08.177Z,98014.42
2019-03-04T13:12:39.445Z,98015.73
2019-03-04T13:15:19.164Z,98018.03
2019-03-04T13:17:52.321Z,98022.75
2019-03-04T13:20:23.700Z,98027.20
2019-03-04T13:22:55.033Z,98028.13
2019-03-04T13:25:26.330Z,98004.42
2019-03-04T13:28:07.504Z,98029.76
2019-03-04T13:30:30.664Z,98049.34
2019-03-04T13:33:01.974Z,98051.92
2019-03-04T13:35:33.311Z,98057.63
2019-03-04T13:38:04.711Z,98057.63
2019-03-04T13:40:36.118Z,98076.31
2019-03-04T13:43:07.506Z,98084.94
2019-03-04T13:45:38.916Z,98083.67
2019-03-04T13:48:10.359Z,98081.89
2019-03-04T13:50:41.689Z,98090.17
2019-03-04T13:53:12.982Z,98124.67
2019-03-04T13:55:44.290Z,98100.62
2019-03-04T13:58:15.609Z,98120.93
2019-03-04T14:00:46.887Z,98118.27
2019-03-04T14:03:18.168Z,98115.50
2019-03-04T14:05:49.467Z,98115.66
2019-03-04T14:08:20.971Z,98124.28
2019-03-04T14:10:52.242Z,98131.45
2019-03-04T14:13:23.793Z,98140.20
2019-03-04T14:15:55.207Z,98145.84
2019-03-04T14:18:26.529Z,98155.72
2019-03-04T14:20:57.818Z,98153.20
2019-03-04T14:23:29.095Z,98151.47
2019-03-04T14:26:00.362Z,98162.80
2019-03-04T14:28:31.650Z,98141.83
2019-03-04T14:31:02.952Z,98161.78
2019-03-04T14:33:34.241Z,98173.59
2019-03-04T14:36:05.549Z,98174.86
2019-03-04T14:38:36.831Z,98184.34
2019-03-04T14:41:08.141Z,98165.89
2019-03-04T14:43:39.438Z,98192.14
2019-03-04T14:46:21.739Z,98193.52
2019-03-04T14:48:53.097Z,98199.52
2019-03-04T14:51:24.398Z,98194.43
2019-03-04T14:53:55.636Z,98218.09
2019-03-04T14:56:26.962Z,98210.19
2019-03-04T14:59:10.263Z,98211.78
2019-03-04T15:01:31.315Z,98224.56
2019-03-04T15:04:02.654Z,98235.52
2019-03-04T15:06:33.947Z,98243.20
2019-03-04T15:09:08.107Z,98244.84
2019-03-04T15:11:39.442Z,98253.07
2019-03-04T15:14:10.745Z,98259.02
2019-03-04T15:16:42.070Z,98280.47
2019-03-04T15:19:13.369Z,98270.56
2019-03-04T15:21:44.648Z,98278.18
2019-03-04T15:24:15.933Z,98288.77
2019-03-04T15:26:47.342Z,98284.75
2019-03-04T15:29:18.607Z,98299.05
2019-03-04T15:31:49.964Z,98299.13
2019-03-04T15:34:21.243Z,98306.23
2019-03-04T15:36:52.542Z,98311.25
2019-03-04T15:39:23.963Z,98306.92
2019-03-04T15:41:55.640Z,98323.69
2019-03-04T15:44:26.949Z,98320.33
2019-03-04T15:46:58.193Z,98331.39
2019-03-04T15:49:29.528Z,98336.52
2019-03-04T15:52:00.848Z,98336.88
2019-03-04T15:54:32.159Z,98344.14
2019-03-04T15:57:05.094Z,98353.28
2019-03-04T15:59:36.371Z,98353.59
2019-03-04T16:02:13.633Z,98367.77
2019-03-04T16:04:44.907Z,98380.44
2019-03-04T16:07:16.314Z,98378.90
2019-03-04T16:09:47.638Z,98382.48
2019-03-04T16:12:22.043Z,98388.32
2019-03-04T16:14:53.347Z,98394.50
2019-03-04T16:17:24.573Z,98391.14
2019-03-04T16:19:55.845Z,98404.70
2019-03-04T16:22:29.163Z,98404.52
2019-03-04T16:25:00.454Z,98411.05
2019-03-04T16:27:31.701Z,98417.06
2019-03-04T16:30:02.933Z,98409.61
2019-03-04T16:32:34.209Z,98419.50
2019-03-04T16:35:05.689Z,98422.66
2019-03-04T16:37:37.026Z,98431.36
2019-03-04T16:40:11.956Z,98440.31
2019-03-04T16:42:43.269Z,98423.91
2019-03-04T16:45:17.296Z,98442.44
2019-03-04T16:47:49.242Z,98440.97
2019-03-04T16:50:20.561Z,98453.75
2019-03-04T16:52:52.067Z,98449.73
2019-03-04T16:55:23.326Z,98457.48
2019-03-04T16:57:54.620Z,98458.78
2019-03-04T17:00:27.151Z,98463.92
2019-03-04T17:02:58.408Z,98471.17
2019-03-04T17:05:29.821Z,98474.20
2019-03-04T17:08:01.080Z,98480.33
2019-03-04T17:10:32.674Z,98481.20
2019-03-04T17:13:03.986Z,98492.81
2019-03-04T17:15:35.265Z,98478.50
2019-03-04T17:18:06.806Z,98512.22
2019-03-04T17:20:38.056Z,98513.61
2019-03-04T17:23:09.533Z,98502.95
2019-03-04T17:25:40.898Z,98520.86
2019-03-04T17:28:12.271Z,98525.01
2019-03-04T17:30:43.701Z,98516.68
2019-03-04T17:33:15.408Z,98540.19
2019-03-04T17:35:46.755Z,98530.72
2019-03-04T17:38:18.067Z,98540.75
2019-03-04T17:40:49.374Z,98543.47
2019-03-04T17:43:20.675Z,98539.08
2019-03-04T17:45:51.962Z,98553.29
2019-03-04T17:48:23.217Z,98540.57
2019-03-04T17:50:54.582Z,98559.30
2019-03-04T17:53:25.796Z,98573.16
2019-03-04T17:55:57.052Z,98581.58
2019-03-04T17:58:28.302Z,98573.43
2019-03-04T18:00:59.595Z,98576.80
2019-03-04T18:03:30.848Z,98581.11
2019-03-04T18:06:02.088Z,98588.11
2019-03-04T18:08:33.378Z,98588.67
2019-03-04T18:11:04.691Z,98592.31
2019-03-04T18:13:36.185Z,98586.78
2019-03-04T18:16:07.532Z,98591.50
2019-03-04T18:18:38.790Z,98594.12
2019-03-04T18:21:10.189Z,98600.85
2019-03-04T18:23:41.501Z,98603.92
2019-03-04T18:26:21.509Z,98600.09
2019-03-04T18:29:45.963Z,98603.89
2019-03-04T18:33:17.466Z,98609.23
2019-03-04T18:36:52.926Z,98614.48
2019-03-04T18:40:04.629Z,98618.02
2019-03-04T18:43:30.067Z,98615.47
2019-03-04T18:46:53.300Z,98617.54
2019-03-04T18:49:24.606Z,98623.80
2019-03-04T18:51:56.066Z,98619.67
2019-03-04T18:54:27.828Z,98624.84
2019-03-04T18:56:59.149Z,98619.67
2019-03-04T18:59:30.394Z,98621.34
2019-03-04T19:02:04.720Z,98623.80
2019-03-04T19:04:36.040Z,98623.05
2019-03-04T19:07:07.406Z,98618.95
2019-03-04T19:09:38.679Z,98623.38
2019-03-04T19:12:10.079Z,98627.11
2019-03-04T19:14:41.475Z,98630.67
2019-03-04T19:17:12.787Z,98634.27
2019-03-04T19:19:44.294Z,98637.42
2019-03-04T19:22:15.839Z,98635.58
2019-03-04T19:24:47.908Z,98633.62
2019-03-04T19:27:19.298Z,98630.21
2019-03-04T19:29:50.592Z,98644.91
2019-03-04T19:32:21.985Z,98643.59
2019-03-04T19:34:53.316Z,98633.06
2019-03-04T19:37:24.666Z,98647.62
2019-03-04T19:39:55.954Z,98644.55
2019-03-04T19:42:27.276Z,98643.34
2019-03-04T19:44:58.625Z,98654.47
2019-03-04T19:47:30.078Z,98649.84
2019-03-04T19:50:04.537Z,98654.50
2019-03-04T19:52:35.848Z,98645.23
2019-03-04T19:55:09.107Z,98647.00
2019-03-04T19:57:40.654Z,98659.13
2019-03-04T20:00:16.140Z,98647.92
2019-03-04T20:02:48.681Z,98645.45
2019-03-04T20:05:23.218Z,98646.77
2019-03-04T20:07:54.502Z,98645.45
2019-03-04T20:10:25.833Z,98650.63
2019-03-04T20:12:57.190Z,98654.72
2019-03-04T20:15:28.559Z,98680.38
2019-03-04T20:18:00.023Z,98668.35
2019-03-04T20:20:31.306Z,98668.06
2019-03-04T20:23:02.587Z,98646.22
2019-03-04T20:25:33.889Z,98656.44
2019-03-04T20:28:05.240Z,98662.39
2019-03-04T20:30:36.623Z,98675.75
2019-03-04T20:33:08.010Z,98664.91
2019-03-04T20:35:39.357Z,98668.78
2019-03-04T20:38:10.746Z,98665.57
2019-03-04T20:40:42.074Z,98661.94
2019-03-04T20:43:13.502Z,98662.53
2019-03-04T20:45:44.858Z,98651.49
2019-03-04T20:48:16.140Z,98663.73
2019-03-04T20:50:47.591Z,98675.20
2019-03-04T20:53:18.984Z,98668.32
2019-03-04T20:55:50.327Z,98670.55
2019-03-04T20:58:21.670Z,98666.26
2019-03-04T21:00:52.956Z,98671.27
2019-03-04T21:03:34.375Z,98668.52
2019-03-04T21:05:57.387Z,98673.56
2019-03-04T21:08:28.712Z,98672.28
2019-03-04T21:11:00.294Z,98681.97
2019-03-04T21:13:35.908Z,98678.73
2019-03-04T21:16:06.370Z,98682.77
2019-03-04T21:18:41.276Z,98683.22
2019-03-04T21:21:12.679Z,98672.28
2019-03-04T21:23:44.133Z,98695.30
2019-03-04T21:26:23.008Z,98699.98
2019-03-04T21:29:30.141Z,98710.27
2019-03-04T21:32:32.567Z,98729.78
2019-03-04T21:36:01.139Z,98751.09
2019-03-04T21:38:34.777Z,98768.14
2019-03-04T21:41:39.152Z,98743.11
2019-03-04T21:45:26.339Z,98761.45
2019-03-04T21:48:26.991Z,98759.70
2019-03-04T21:51:38.209Z,98755.92
2019-03-04T21:54:03.998Z,98752.91
2019-03-04T21:57:10.975Z,98760.29
2019-03-04T21:59:42.303Z,98763.89
2019-03-04T22:02:23.180Z,98757.89
2019-03-04T22:04:55.038Z,98769.13
2019-03-04T22:07:26.325Z,98758.84
2019-03-04T22:09:57.565Z,98757.98
2019-03-04T22:12:30.600Z,98774.77
2019-03-04T22:15:01.946Z,98776.07
2019-03-04T22:17:33.345Z,98764.44
2019-03-04T22:20:04.975Z,98786.44
2019-03-04T22:22:36.244Z,98756.27
2019-03-04T22:25:08.575Z,98778.34
2019-03-04T22:27:39.837Z,98786.58
2019-03-04T22:30:15.107Z,98772.95
2019-03-04T22:32:46.567Z,98777.41
2019-03-04T22:35:18.099Z,98788.71
2019-03-04T22:37:49.384Z,98798.00
2019-03-04T22:40:21.594Z,98791.41
2019-03-04T22:42:52.850Z,98805.36
2019-03-04T22:45:24.114Z,98786.53
2019-03-04T22:47:55.430Z,98780.84
2019-03-04T22:50:26.750Z,98788.82
2019-03-04T22:52:58.016Z,98785.22
2019-03-04T22:55:32.792Z,98795.22
2019-03-04T22:58:04.108Z,98798.82
2019-03-04T23:01:34.109Z,98790.34
2019-03-04T23:04:20.941Z,98788.66
2019-03-04T23:07:20.800Z,98797.58
2019-03-04T23:10:24.671Z,98801.59
2019-03-04T23:13:30.933Z,98805.52
2019-03-04T23:16:04.377Z,98797.65
2019-03-04T23:18:35.644Z,98803.88
2019-03-04T23:21:07.113Z,98811.95
2019-03-04T23:23:38.410Z,98808.70
2019-03-04T23:26:09.692Z,98804.41
2019-03-04T23:28:40.975Z,98805.94
2019-03-04T23:31:12.705Z,98832.77
2019-03-04T23:33:43.995Z,98814.77
2019-03-04T23:36:15.299Z,98822.47
2019-03-04T23:38:46.564Z,98827.70
2019-03-04T23:41:17.978Z,98813.99
2019-03-04T23:43:49.286Z,98819.90
2019-03-04T23:46:20.526Z,98822.91
2019-03-04T23:48:51.752Z,98811.53
2019-03-04T23:51:23.051Z,98827.75
2019-03-04T23:53:54.351Z,98833.11
2019-03-04T23:56:25.603Z,98832.20
2019-03-04T23:58:56.950Z,98835.27
